Time;durP1;ratioP1;P1;durP2;ratioP2;P2;SDS_P1;SDS_P2;PMS_P1;PMS_P2;Temp;Humidity;BMP_temperature;BMP_pressure;BME280_temperature;BME280_humidity;BME280_pressure;Samples;Min_cycle;Max_cycle;Signal;HPM_P1;HPM_P2
2022/07/01 00:01:42;;;;;;;7.00;3.38;;;;;;;;;;5070663;28;20037;-69
2022/07/01 00:04:07;;;;;;;6.97;3.30;;;;;;;;;;5057775;28;20040;-70
2022/07/01 00:06:33;;;;;;;6.75;3.35;;;;;;;;;;5064435;28;20442;-69
2022/07/01 00:08:59;;;;;;;6.30;3.45;;;;;;;;;;5059228;28;20534;-69
2022/07/01 00:11:24;;;;;;;7.43;3.67;;;;;;;;;;5061902;28;20033;-69
2022/07/01 00:13:50;;;;;;;7.32;4.00;;;;;;;;;;5074823;28;20039;-70
2022/07/01 00:16:15;;;;;;;6.75;3.08;;;;;;;;;;5064740;28;20037;-70
2022/07/01 00:18:41;;;;;;;12.05;4.30;;;;;;;;;;5065536;28;20040;-69
2022/07/01 00:21:06;;;;;;;8.60;3.80;;;;;;;;;;5066608;28;20094;-69
2022/07/01 00:23:32;;;;;;;8.95;3.47;;;;;;;;;;5069501;28;20024;-69
2022/07/01 00:25:57;;;;;;;10.50;3.80;;;;;;;;;;5067141;28;20054;-69
2022/07/01 00:28:23;;;;;;;8.02;3.63;;;;;;;;;;5064440;28;20065;-69
2022/07/01 00:30:48;;;;;;;8.70;3.67;;;;;;;;;;5075970;28;20032;-70
2022/07/01 00:33:14;;;;;;;8.95;4.05;;;;;;;;;;5078066;28;20431;-69
2022/07/01 00:35:39;;;;;;;11.63;3.92;;;;;;;;;;5059979;28;20012;-70
2022/07/01 00:38:04;;;;;;;8.15;4.00;;;;;;;;;;5076511;28;20497;-69
2022/07/01 00:40:30;;;;;;;9.18;4.22;;;;;;;;;;5058385;28;20525;-69
2022/07/01 00:42:55;;;;;;;10.20;4.25;;;;;;;;;;5064772;28;20055;-69
2022/07/01 00:45:20;;;;;;;14.18;4.35;;;;;;;;;;5065855;28;20046;-69
2022/07/01 00:47:46;;;;;;;13.75;3.95;;;;;;;;;;5059545;28;20033;-69
2022/07/01 00:50:14;;;;;;;8.63;4.55;;;;;;;;;;5064735;28;20032;-69
2022/07/01 00:52:43;;;;;;;10.50;4.85;;;;;;;;;;5062495;28;20039;-69
2022/07/01 00:55:11;;;;;;;16.67;4.32;;;;;;;;;;5060018;28;20200;-70
2022/07/01 00:57:37;;;;;;;13.02;4.60;;;;;;;;;;5067181;28;20033;-69
2022/07/01 01:00:06;;;;;;;9.93;4.70;;;;;;;;;;5060955;28;20125;-70
2022/07/01 01:02:31;;;;;;;11.02;4.20;;;;;;;;;;5071847;28;20090;-69
2022/07/01 01:04:57;;;;;;;11.95;4.15;;;;;;;;;;5062392;28;20028;-69
2022/07/01 01:07:22;;;;;;;9.15;4.70;;;;;;;;;;5078524;28;20028;-69
2022/07/01 01:09:48;;;;;;;11.82;4.38;;;;;;;;;;5067930;28;20032;-70
2022/07/01 01:12:14;;;;;;;10.15;4.07;;;;;;;;;;5069272;28;20071;-69
2022/07/01 01:14:47;;;;;;;7.63;3.92;;;;;;;;;;5068589;28;20042;-69
2022/07/01 01:17:14;;;;;;;9.10;3.85;;;;;;;;;;5058380;28;20028;-69
2022/07/01 01:19:40;;;;;;;9.13;4.40;;;;;;;;;;5071321;28;20093;-69
2022/07/01 01:22:06;;;;;;;9.95;3.63;;;;;;;;;;5056760;28;20680;-69
2022/07/01 01:24:31;;;;;;;10.18;3.75;;;;;;;;;;5074985;28;20037;-69
2022/07/01 01:26:57;;;;;;;9.13;3.35;;;;;;;;;;5068036;28;20033;-69
2022/07/01 01:29:22;;;;;;;7.10;3.67;;;;;;;;;;5069972;28;20023;-69
2022/07/01 01:31:47;;;;;;;9.57;3.42;;;;;;;;;;5065579;28;20990;-69
2022/07/01 01:34:13;;;;;;;7.80;3.67;;;;;;;;;;5065275;28;20043;-69
2022/07/01 01:36:38;;;;;;;11.40;3.58;;;;;;;;;;5065460;28;20394;-69
2022/07/01 01:39:10;;;;;;;6.85;3.25;;;;;;;;;;5070009;28;20040;-69
2022/07/01 01:41:35;;;;;;;4.43;2.83;;;;;;;;;;5080858;28;20043;-69
2022/07/01 01:44:01;;;;;;;6.68;3.28;;;;;;;;;;5068097;28;20561;-69
2022/07/01 01:46:28;;;;;;;5.00;3.08;;;;;;;;;;5065927;28;20037;-69
2022/07/01 01:48:54;;;;;;;4.82;3.08;;;;;;;;;;5071033;28;20665;-69
2022/07/01 01:51:20;;;;;;;7.40;3.80;;;;;;;;;;5067930;28;20041;-69
2022/07/01 01:53:45;;;;;;;12.32;3.10;;;;;;;;;;5065937;28;20039;-69
2022/07/01 01:56:10;;;;;;;6.47;2.65;;;;;;;;;;5069288;28;20069;-69
2022/07/01 01:58:35;;;;;;;5.82;3.08;;;;;;;;;;5067733;28;20035;-69
2022/07/01 02:01:01;;;;;;;4.93;2.80;;;;;;;;;;5065525;28;20125;-69
2022/07/01 02:03:28;;;;;;;5.97;3.00;;;;;;;;;;5073051;28;20036;-70
2022/07/01 02:05:54;;;;;;;7.25;3.10;;;;;;;;;;5063360;28;20498;-69
2022/07/01 02:08:19;;;;;;;4.25;2.88;;;;;;;;;;5067669;28;20034;-69
2022/07/01 02:10:44;;;;;;;5.38;2.90;;;;;;;;;;5074179;28;20041;-69
2022/07/01 02:13:10;;;;;;;7.60;3.22;;;;;;;;;;5069143;28;20667;-69
2022/07/01 02:15:35;;;;;;;7.90;3.40;;;;;;;;;;5067368;28;20078;-69
2022/07/01 02:18:01;;;;;;;4.07;3.05;;;;;;;;;;5058823;28;20033;-69
2022/07/01 02:20:26;;;;;;;8.60;2.90;;;;;;;;;;5066650;28;20047;-68
2022/07/01 02:22:51;;;;;;;6.22;2.80;;;;;;;;;;5064961;28;20020;-70
2022/07/01 02:25:17;;;;;;;7.32;3.05;;;;;;;;;;5071541;28;20040;-70
2022/07/01 02:27:42;;;;;;;8.60;2.92;;;;;;;;;;5066596;28;20040;-69
2022/07/01 02:30:08;;;;;;;7.45;2.58;;;;;;;;;;5063718;28;20528;-69
2022/07/01 02:32:34;;;;;;;7.40;2.72;;;;;;;;;;5064296;28;20401;-69
2022/07/01 02:34:59;;;;;;;7.40;2.92;;;;;;;;;;5071915;28;20257;-69
2022/07/01 02:37:26;;;;;;;11.05;2.58;;;;;;;;;;5074113;28;20028;-69
2022/07/01 02:39:52;;;;;;;4.63;2.53;;;;;;;;;;5059940;28;20031;-68
2022/07/01 02:42:23;;;;;;;8.38;2.55;;;;;;;;;;5072451;28;20041;-70
2022/07/01 02:44:49;;;;;;;6.88;2.50;;;;;;;;;;5074642;28;20059;-69
2022/07/01 02:47:14;;;;;;;5.82;3.10;;;;;;;;;;5068972;28;20622;-69
2022/07/01 02:49:39;;;;;;;4.55;2.83;;;;;;;;;;5076835;28;20035;-69
2022/07/01 02:52:05;;;;;;;8.00;2.53;;;;;;;;;;5065499;28;20033;-69
2022/07/01 02:54:30;;;;;;;4.28;2.08;;;;;;;;;;5070676;28;20486;-69
2022/07/01 02:56:56;;;;;;;4.53;2.50;;;;;;;;;;5070879;28;20028;-69
2022/07/01 02:59:21;;;;;;;5.30;2.50;;;;;;;;;;5064324;28;20170;-69
2022/07/01 03:01:46;;;;;;;3.05;2.20;;;;;;;;;;5064475;28;20036;-69
2022/07/01 03:04:12;;;;;;;6.07;2.40;;;;;;;;;;5073969;28;20033;-70
2022/07/01 03:06:37;;;;;;;6.68;2.50;;;;;;;;;;5071868;28;20043;-69
2022/07/01 03:09:03;;;;;;;4.28;2.45;;;;;;;;;;5064623;28;20025;-69
2022/07/01 03:11:28;;;;;;;4.50;2.63;;;;;;;;;;5083173;28;20050;-69
2022/07/01 03:13:54;;;;;;;12.43;2.60;;;;;;;;;;5071354;28;20032;-69
2022/07/01 03:16:19;;;;;;;9.02;2.30;;;;;;;;;;5071686;28;20759;-69
2022/07/01 03:18:44;;;;;;;12.02;3.00;;;;;;;;;;5060851;28;20055;-69
2022/07/01 03:21:10;;;;;;;9.60;2.58;;;;;;;;;;5064915;28;20025;-69
2022/07/01 03:23:35;;;;;;;5.35;2.45;;;;;;;;;;5065211;28;20024;-69
2022/07/01 03:26:00;;;;;;;7.53;2.33;;;;;;;;;;5064975;28;20017;-70
2022/07/01 03:28:25;;;;;;;5.47;2.53;;;;;;;;;;5067838;28;20032;-69
2022/07/01 03:30:51;;;;;;;9.65;2.60;;;;;;;;;;5068762;28;20048;-69
2022/07/01 03:33:16;;;;;;;6.82;2.33;;;;;;;;;;5076929;28;20024;-69
2022/07/01 03:35:45;;;;;;;5.75;2.25;;;;;;;;;;5067898;28;20020;-69
2022/07/01 03:38:11;;;;;;;7.95;2.47;;;;;;;;;;5075284;28;20044;-69
2022/07/01 03:40:36;;;;;;;6.47;2.72;;;;;;;;;;5070098;28;20032;-69
2022/07/01 03:43:03;;;;;;;7.35;2.60;;;;;;;;;;5076042;28;20052;-69
2022/07/01 03:45:29;;;;;;;4.85;2.50;;;;;;;;;;5080424;28;20040;-69
2022/07/01 03:47:54;;;;;;;7.72;2.83;;;;;;;;;;5077685;28;20080;-69
2022/07/01 03:50:24;;;;;;;8.68;3.60;;;;;;;;;;5069366;28;20096;-69
2022/07/01 03:54:29;;;;;;;7.20;2.95;;;;;;;;;;5075691;28;20035;-69
2022/07/01 03:55:36;;;;;;;5.90;2.97;;;;;;;;;;5074769;28;20051;-69
2022/07/01 03:58:02;;;;;;;9.13;3.05;;;;;;;;;;5077808;28;20052;-69
2022/07/01 04:00:27;;;;;;;7.95;3.38;;;;;;;;;;5069430;28;20020;-69
2022/07/01 04:02:53;;;;;;;6.85;3.17;;;;;;;;;;5069812;28;20029;-69
2022/07/01 04:05:18;;;;;;;4.15;2.95;;;;;;;;;;5074964;28;20074;-69
2022/07/01 04:07:43;;;;;;;10.20;3.20;;;;;;;;;;5080818;28;20040;-69
2022/07/01 04:10:09;;;;;;;6.65;2.92;;;;;;;;;;5072350;28;20029;-69
2022/07/01 04:12:34;;;;;;;7.80;3.47;;;;;;;;;;5068044;28;20554;-70
2022/07/01 04:15:00;;;;;;;9.90;2.97;;;;;;;;;;5070158;28;20032;-69
2022/07/01 04:17:25;;;;;;;5.32;3.30;;;;;;;;;;5065893;28;20023;-69
2022/07/01 04:19:50;;;;;;;7.28;3.30;;;;;;;;;;5069167;28;20012;-69
2022/07/01 04:22:35;;;;;;;9.75;3.20;;;;;;;;;;5068301;28;20039;-69
2022/07/01 04:25:03;;;;;;;4.63;3.30;;;;;;;;;;5067519;28;20510;-69
2022/07/01 04:27:28;;;;;;;5.32;3.22;;;;;;;;;;5068042;28;20029;-69
2022/07/01 04:29:54;;;;;;;16.40;3.60;;;;;;;;;;5062654;28;20037;-68
2022/07/01 04:32:19;;;;;;;12.63;4.25;;;;;;;;;;5077555;28;20013;-69
2022/07/01 04:34:44;;;;;;;6.82;3.95;;;;;;;;;;5064941;28;20040;-69
2022/07/01 04:37:10;;;;;;;8.60;3.85;;;;;;;;;;5071835;28;20028;-69
2022/07/01 04:39:35;;;;;;;11.95;4.28;;;;;;;;;;5084932;28;20574;-69
2022/07/01 04:42:01;;;;;;;11.18;4.53;;;;;;;;;;5068078;28;20036;-69
2022/07/01 04:44:31;;;;;;;12.75;5.25;;;;;;;;;;5072671;28;20037;-69
2022/07/01 04:46:58;;;;;;;15.13;4.70;;;;;;;;;;5071579;28;20047;-69
2022/07/01 04:49:24;;;;;;;11.90;3.72;;;;;;;;;;5072523;28;20040;-69
2022/07/01 04:51:50;;;;;;;6.93;3.92;;;;;;;;;;5069893;28;20028;-68
2022/07/01 04:54:15;;;;;;;8.35;4.22;;;;;;;;;;5075691;28;20029;-69
2022/07/01 04:56:40;;;;;;;9.77;3.65;;;;;;;;;;5064880;28;20027;-68
2022/07/01 04:59:06;;;;;;;7.68;3.25;;;;;;;;;;5066923;28;20036;-69
2022/07/01 05:01:31;;;;;;;5.90;2.78;;;;;;;;;;5062115;28;20052;-69
2022/07/01 05:03:57;;;;;;;6.05;2.95;;;;;;;;;;5067827;28;20119;-69
2022/07/01 05:06:23;;;;;;;9.25;2.85;;;;;;;;;;5081189;28;20024;-69
2022/07/01 05:08:48;;;;;;;4.13;2.45;;;;;;;;;;5066895;28;20032;-69
2022/07/01 05:11:14;;;;;;;6.43;2.80;;;;;;;;;;5079458;28;20059;-69
2022/07/01 05:13:39;;;;;;;5.82;3.10;;;;;;;;;;5073281;28;20028;-68
2022/07/01 05:16:06;;;;;;;6.25;2.95;;;;;;;;;;5083616;28;20063;-69
2022/07/01 05:23:59;;;;;;;8.82;3.15;;;;;;;;;;5068118;28;20093;-68
2022/07/01 05:26:25;;;;;;;5.47;2.83;;;;;;;;;;5078193;28;20032;-69
2022/07/01 05:28:52;;;;;;;5.80;3.08;;;;;;;;;;5070384;28;20497;-69
2022/07/01 05:31:18;;;;;;;7.43;3.60;;;;;;;;;;5068872;28;20127;-68
2022/07/01 05:33:43;;;;;;;6.68;3.55;;;;;;;;;;5068819;28;20127;-69
2022/07/01 05:36:09;;;;;;;9.82;3.53;;;;;;;;;;5083715;28;20123;-69
2022/07/01 05:38:35;;;;;;;10.07;3.63;;;;;;;;;;5073193;28;20032;-69
2022/07/01 05:41:00;;;;;;;7.13;3.40;;;;;;;;;;5065333;28;20020;-69
2022/07/01 05:43:25;;;;;;;7.90;3.50;;;;;;;;;;5075621;28;20052;-69
2022/07/01 05:45:51;;;;;;;5.45;3.60;;;;;;;;;;5074026;28;20177;-69
2022/07/01 05:48:16;;;;;;;7.47;3.55;;;;;;;;;;5065274;28;20425;-69
2022/07/01 05:50:43;;;;;;;8.30;3.35;;;;;;;;;;5066161;28;20494;-69
2022/07/01 05:53:08;;;;;;;11.27;4.55;;;;;;;;;;5067744;28;20028;-69
2022/07/01 05:55:34;;;;;;;7.35;3.90;;;;;;;;;;5069829;28;20726;-69
2022/07/01 05:58:01;;;;;;;8.65;4.20;;;;;;;;;;5065059;28;20410;-69
2022/07/01 06:00:27;;;;;;;6.95;4.20;;;;;;;;;;5056546;28;20060;-68
2022/07/01 06:02:52;;;;;;;8.55;4.10;;;;;;;;;;5061402;28;20078;-69
2022/07/01 06:05:18;;;;;;;7.05;3.05;;;;;;;;;;5061074;28;20029;-68
2022/07/01 06:07:43;;;;;;;12.60;3.78;;;;;;;;;;5078825;28;20062;-68
2022/07/01 06:10:12;;;;;;;9.10;3.63;;;;;;;;;;5077143;28;20040;-69
2022/07/01 06:12:38;;;;;;;7.50;3.58;;;;;;;;;;5076576;28;20643;-69
2022/07/01 06:15:08;;;;;;;9.18;2.92;;;;;;;;;;5073481;28;20016;-69
2022/07/01 06:17:37;;;;;;;6.05;2.72;;;;;;;;;;5061587;28;20024;-69
2022/07/01 06:20:03;;;;;;;4.85;2.60;;;;;;;;;;5080183;28;20523;-71
2022/07/01 06:22:28;;;;;;;9.13;3.17;;;;;;;;;;5064653;28;20051;-70
2022/07/01 06:24:53;;;;;;;7.63;3.63;;;;;;;;;;5067078;28;20044;-70
2022/07/01 06:27:19;;;;;;;6.90;3.75;;;;;;;;;;5067908;28;20040;-70
2022/07/01 06:29:45;;;;;;;5.55;4.00;;;;;;;;;;5067675;28;20465;-68
2022/07/01 06:32:10;;;;;;;8.52;3.58;;;;;;;;;;5070903;28;20036;-68
2022/07/01 06:34:36;;;;;;;8.05;4.72;;;;;;;;;;5067687;28;20101;-68
2022/07/01 06:37:02;;;;;;;15.13;6.55;;;;;;;;;;5067799;28;20588;-68
2022/07/01 06:39:28;;;;;;;8.90;4.88;;;;;;;;;;5065483;28;20029;-68
2022/07/01 06:41:55;;;;;;;11.73;5.32;;;;;;;;;;5064231;28;20079;-68
2022/07/01 06:44:20;;;;;;;12.35;6.15;;;;;;;;;;5066850;28;20544;-68
2022/07/01 06:46:46;;;;;;;12.50;6.18;;;;;;;;;;5057398;28;20043;-68
2022/07/01 06:49:11;;;;;;;12.95;6.75;;;;;;;;;;5064825;28;20041;-68
2022/07/01 06:51:36;;;;;;;11.20;6.28;;;;;;;;;;5067278;28;20138;-68
2022/07/01 06:54:02;;;;;;;12.68;5.85;;;;;;;;;;5066082;28;20032;-68
2022/07/01 06:56:27;;;;;;;13.93;5.90;;;;;;;;;;5065630;28;20046;-68
2022/07/01 06:58:53;;;;;;;11.95;5.50;;;;;;;;;;5063631;28;20072;-68
2022/07/01 07:01:18;;;;;;;10.05;4.47;;;;;;;;;;5062979;28;20513;-68
2022/07/01 07:03:44;;;;;;;12.15;5.93;;;;;;;;;;5064845;28;20086;-70
2022/07/01 07:06:10;;;;;;;10.82;5.20;;;;;;;;;;5066187;28;20112;-70
2022/07/01 07:08:36;;;;;;;9.02;4.78;;;;;;;;;;5059422;28;20021;-69
2022/07/01 07:11:02;;;;;;;4.82;3.05;;;;;;;;;;5063462;28;20064;-69
2022/07/01 07:13:28;;;;;;;4.72;3.65;;;;;;;;;;5063104;28;20032;-69
2022/07/01 07:15:54;;;;;;;14.65;4.43;;;;;;;;;;5064913;28;20037;-68
2022/07/01 07:18:19;;;;;;;8.63;3.90;;;;;;;;;;5065287;28;20041;-69
2022/07/01 07:20:47;;;;;;;8.10;3.63;;;;;;;;;;5049410;28;20028;-69
2022/07/01 07:23:13;;;;;;;5.18;3.42;;;;;;;;;;5059289;28;20104;-69
2022/07/01 07:25:38;;;;;;;8.02;3.75;;;;;;;;;;5056229;28;20072;-70
2022/07/01 07:28:03;;;;;;;9.10;2.80;;;;;;;;;;5060306;28;20036;-69
2022/07/01 07:30:29;;;;;;;9.18;3.05;;;;;;;;;;5065502;28;20206;-69
2022/07/01 07:32:54;;;;;;;4.60;2.40;;;;;;;;;;5072173;28;20115;-71
2022/07/01 07:35:19;;;;;;;7.72;2.60;;;;;;;;;;5067805;28;20471;-71
2022/07/01 07:37:45;;;;;;;8.60;3.67;;;;;;;;;;5080019;28;20573;-69
2022/07/01 07:40:12;;;;;;;5.97;3.20;;;;;;;;;;5075543;28;20033;-69
2022/07/01 07:42:40;;;;;;;5.05;2.80;;;;;;;;;;5070723;28;20033;-71
2022/07/01 07:45:07;;;;;;;7.35;2.88;;;;;;;;;;5063840;28;20040;-71
2022/07/01 07:47:35;;;;;;;8.02;2.90;;;;;;;;;;5063659;28;20093;-72
2022/07/01 07:50:02;;;;;;;9.55;2.38;;;;;;;;;;5065964;28;20094;-70
2022/07/01 07:52:27;;;;;;;4.70;2.15;;;;;;;;;;5065816;28;20035;-70
2022/07/01 07:54:53;;;;;;;5.25;2.45;;;;;;;;;;5064436;28;20033;-71
2022/07/01 07:57:18;;;;;;;4.75;2.42;;;;;;;;;;5066092;28;20032;-70
2022/07/01 07:59:43;;;;;;;4.45;2.47;;;;;;;;;;5067767;28;20024;-72
2022/07/01 08:02:09;;;;;;;6.63;3.22;;;;;;;;;;5071035;28;20095;-69
2022/07/01 08:04:34;;;;;;;6.75;3.10;;;;;;;;;;5067754;28;20459;-69
2022/07/01 08:07:00;;;;;;;5.50;3.30;;;;;;;;;;5065456;28;20032;-69
2022/07/01 08:09:26;;;;;;;7.55;3.65;;;;;;;;;;5061718;28;20029;-69
2022/07/01 08:11:51;;;;;;;5.90;3.35;;;;;;;;;;5066605;28;20056;-69
2022/07/01 08:14:16;;;;;;;9.68;3.90;;;;;;;;;;5064305;28;20063;-69
2022/07/01 08:16:42;;;;;;;5.95;3.95;;;;;;;;;;5067200;28;20033;-69
2022/07/01 08:19:07;;;;;;;7.07;4.47;;;;;;;;;;5061721;28;20087;-69
2022/07/01 08:21:32;;;;;;;8.73;4.63;;;;;;;;;;5079675;28;20028;-69
2022/07/01 08:23:58;;;;;;;6.32;4.40;;;;;;;;;;5069883;28;20104;-69
2022/07/01 08:26:23;;;;;;;6.68;4.18;;;;;;;;;;5070104;28;20067;-69
2022/07/01 08:28:48;;;;;;;8.02;4.43;;;;;;;;;;5071666;28;20124;-71
2022/07/01 08:31:14;;;;;;;8.00;3.60;;;;;;;;;;5064526;28;20040;-69
2022/07/01 08:33:40;;;;;;;6.95;3.72;;;;;;;;;;5071367;28;20111;-66
2022/07/01 08:36:07;;;;;;;7.53;3.83;;;;;;;;;;5060848;28;20564;-66
2022/07/01 08:38:32;;;;;;;5.22;4.07;;;;;;;;;;5053279;28;20588;-66
2022/07/01 08:40:58;;;;;;;6.47;3.30;;;;;;;;;;5037408;28;20140;-68
2022/07/01 08:43:24;;;;;;;11.68;3.80;;;;;;;;;;5035488;28;20053;-67
2022/07/01 08:45:51;;;;;;;6.47;3.42;;;;;;;;;;5051224;28;20042;-68
2022/07/01 08:48:17;;;;;;;4.60;3.25;;;;;;;;;;5062511;28;20028;-66
2022/07/01 08:50:42;;;;;;;4.95;3.47;;;;;;;;;;5069901;28;20102;-67
2022/07/01 08:53:09;;;;;;;5.10;3.65;;;;;;;;;;5074051;28;20082;-67
2022/07/01 08:58:23;;;;;;;7.78;3.50;;;;;;;;;;5065984;28;20086;-67
2022/07/01 09:00:49;;;;;;;5.55;3.00;;;;;;;;;;5064715;28;20101;-68
2022/07/01 09:03:14;;;;;;;6.80;3.20;;;;;;;;;;5069773;28;20024;-68
2022/07/01 09:05:49;;;;;;;6.68;3.10;;;;;;;;;;5062536;28;20153;-66
2022/07/01 09:08:14;;;;;;;5.88;3.30;;;;;;;;;;5067215;28;20032;-67
2022/07/01 09:10:40;;;;;;;7.53;3.40;;;;;;;;;;5057093;28;20125;-67
2022/07/01 09:13:07;;;;;;;4.82;3.08;;;;;;;;;;5056931;28;20028;-67
2022/07/01 09:15:33;;;;;;;8.13;3.28;;;;;;;;;;5065439;28;20040;-66
2022/07/01 09:18:09;;;;;;;5.30;2.63;;;;;;;;;;5058184;28;20024;-66
2022/07/01 09:20:36;;;;;;;7.88;3.25;;;;;;;;;;5063289;28;20131;-66
2022/07/01 09:23:23;;;;;;;10.40;2.88;;;;;;;;;;5065718;28;20094;-66
2022/07/01 09:25:51;;;;;;;10.50;3.33;;;;;;;;;;5059836;28;20040;-66
2022/07/01 09:28:20;;;;;;;4.80;2.47;;;;;;;;;;5060026;28;20043;-67
2022/07/01 09:30:48;;;;;;;5.20;3.10;;;;;;;;;;5060851;28;20041;-68
2022/07/01 09:33:23;;;;;;;6.65;3.10;;;;;;;;;;5060281;28;20023;-67
2022/07/01 09:35:49;;;;;;;3.97;2.50;;;;;;;;;;5064858;28;20017;-68
2022/07/01 09:38:23;;;;;;;4.20;2.97;;;;;;;;;;5060332;28;20576;-65
2022/07/01 09:40:55;;;;;;;4.80;2.78;;;;;;;;;;5063082;28;20028;-67
2022/07/01 09:43:28;;;;;;;4.10;2.10;;;;;;;;;;5061745;28;20485;-66
2022/07/01 09:46:06;;;;;;;6.13;2.17;;;;;;;;;;5061399;28;20052;-67
2022/07/01 09:48:32;;;;;;;5.60;2.30;;;;;;;;;;5059912;28;20110;-67
2022/07/01 09:51:04;;;;;;;4.50;2.20;;;;;;;;;;5065811;28;20626;-67
2022/07/01 09:53:32;;;;;;;2.83;2.10;;;;;;;;;;5067098;28;20129;-66
2022/07/01 09:56:00;;;;;;;5.93;2.20;;;;;;;;;;5059850;28;20533;-66
2022/07/01 09:58:27;;;;;;;4.47;2.05;;;;;;;;;;5059614;28;20681;-67
2022/07/01 10:00:55;;;;;;;3.47;1.98;;;;;;;;;;5061370;28;20521;-66
2022/07/01 10:03:25;;;;;;;5.00;1.60;;;;;;;;;;5064062;28;20040;-68
2022/07/01 10:06:25;;;;;;;3.67;1.65;;;;;;;;;;5061419;28;20020;-66
2022/07/01 10:09:13;;;;;;;6.88;1.70;;;;;;;;;;5027908;28;20075;-66
2022/07/01 10:11:42;;;;;;;3.65;1.65;;;;;;;;;;5066066;28;20589;-67
2022/07/01 10:14:09;;;;;;;4.45;1.45;;;;;;;;;;5062242;28;20060;-67
2022/07/01 10:16:36;;;;;;;5.97;1.20;;;;;;;;;;5061272;28;20033;-67
2022/07/01 10:19:36;;;;;;;3.35;0.98;;;;;;;;;;5065067;28;20521;-67
2022/07/01 10:22:24;;;;;;;4.50;1.73;;;;;;;;;;5038424;28;20049;-65
2022/07/01 10:24:49;;;;;;;1.92;0.90;;;;;;;;;;5057996;28;20036;-67
2022/07/01 10:27:24;;;;;;;3.50;1.00;;;;;;;;;;5057971;28;20601;-67
2022/07/01 10:30:12;;;;;;;4.60;1.00;;;;;;;;;;5057992;28;20025;-68
2022/07/01 10:32:48;;;;;;;1.40;0.90;;;;;;;;;;5061611;28;20052;-68
2022/07/01 10:35:13;;;;;;;2.53;1.00;;;;;;;;;;5065666;28;20040;-66
2022/07/01 10:37:58;;;;;;;3.60;1.02;;;;;;;;;;5073957;28;20044;-67
2022/07/01 10:40:46;;;;;;;2.80;1.00;;;;;;;;;;5060663;28;20041;-66
2022/07/01 10:43:15;;;;;;;3.08;0.93;;;;;;;;;;5059706;28;20541;-67
2022/07/01 10:45:45;;;;;;;3.17;1.13;;;;;;;;;;5065426;28;20036;-66
2022/07/01 10:48:21;;;;;;;7.03;0.90;;;;;;;;;;5069591;28;20036;-66
2022/07/01 10:50:47;;;;;;;1.60;0.82;;;;;;;;;;5064581;28;20056;-67
2022/07/01 10:53:13;;;;;;;4.15;1.05;;;;;;;;;;5062344;28;20130;-66
2022/07/01 10:55:51;;;;;;;2.47;1.00;;;;;;;;;;5076047;28;20033;-66
2022/07/01 10:58:20;;;;;;;1.60;1.00;;;;;;;;;;5071998;28;20035;-66
2022/07/01 11:00:52;;;;;;;5.95;1.40;;;;;;;;;;5067120;28;20123;-65
2022/07/01 11:03:20;;;;;;;1.75;1.20;;;;;;;;;;5069732;28;20028;-66
2022/07/01 11:05:48;;;;;;;4.35;1.25;;;;;;;;;;5060340;28;20021;-68
2022/07/01 11:08:14;;;;;;;2.47;1.17;;;;;;;;;;5063783;28;20398;-68
2022/07/01 11:10:41;;;;;;;1.60;1.02;;;;;;;;;;5061528;28;20793;-67
2022/07/01 11:13:06;;;;;;;3.88;1.40;;;;;;;;;;5061016;28;20456;-66
2022/07/01 11:15:33;;;;;;;1.75;1.30;;;;;;;;;;5065225;28;20049;-67
2022/07/01 11:18:00;;;;;;;1.60;1.10;;;;;;;;;;5062363;28;20111;-67
2022/07/01 11:20:28;;;;;;;1.48;0.98;;;;;;;;;;5062903;28;20064;-67
2022/07/01 11:22:54;;;;;;;3.75;1.10;;;;;;;;;;5061733;28;20060;-67
2022/07/01 11:25:20;;;;;;;1.60;1.15;;;;;;;;;;5070850;28;20074;-66
2022/07/01 11:27:47;;;;;;;1.73;1.00;;;;;;;;;;5062699;28;20036;-67
2022/07/01 11:30:14;;;;;;;1.73;0.95;;;;;;;;;;5058868;28;20033;-67
2022/07/01 11:32:43;;;;;;;1.55;1.05;;;;;;;;;;5062896;28;20618;-67
2022/07/01 11:40:51;;;;;;;;;;;;;;;;;;5055097;28;20090;-68
2022/07/01 11:43:26;;;;;;;3.42;1.30;;;;;;;;;;5062411;28;19928;-67
2022/07/01 11:45:52;;;;;;;1.63;0.88;;;;;;;;;;5065223;28;20039;-67
2022/07/01 11:48:31;;;;;;;2.67;0.95;;;;;;;;;;5065172;28;20844;-68
2022/07/01 11:50:57;;;;;;;2.60;0.90;;;;;;;;;;5069449;28;20024;-69
2022/07/01 11:53:23;;;;;;;2.53;0.98;;;;;;;;;;5071939;28;20127;-67
2022/07/01 11:55:49;;;;;;;1.98;1.15;;;;;;;;;;5070639;28;20157;-67
2022/07/01 11:58:14;;;;;;;2.65;1.05;;;;;;;;;;5069894;28;20036;-66
2022/07/01 12:00:40;;;;;;;1.95;1.00;;;;;;;;;;5064171;28;20037;-67
2022/07/01 12:03:07;;;;;;;3.80;1.25;;;;;;;;;;5067272;28;20115;-67
2022/07/01 12:05:34;;;;;;;3.50;1.00;;;;;;;;;;5064445;28;20039;-67
2022/07/01 12:07:59;;;;;;;2.70;0.90;;;;;;;;;;5062145;28;20464;-68
2022/07/01 12:10:26;;;;;;;3.72;1.00;;;;;;;;;;5066463;28;20501;-67
2022/07/01 12:12:52;;;;;;;2.60;1.00;;;;;;;;;;5071521;28;20033;-67
2022/07/01 12:15:17;;;;;;;2.80;1.10;;;;;;;;;;5071517;28;20036;-66
2022/07/01 12:17:43;;;;;;;6.45;1.20;;;;;;;;;;5073065;28;20029;-67
2022/07/01 12:20:09;;;;;;;8.80;1.38;;;;;;;;;;5064854;28;20840;-67
2022/07/01 12:22:34;;;;;;;3.90;1.10;;;;;;;;;;5064651;28;20569;-67
2022/07/01 12:25:14;;;;;;;2.30;1.00;;;;;;;;;;5068102;28;20043;-67
2022/07/01 12:27:40;;;;;;;5.40;1.15;;;;;;;;;;5062222;28;20027;-67
2022/07/01 12:30:10;;;;;;;4.35;1.10;;;;;;;;;;5067294;28;20020;-67
2022/07/01 12:32:38;;;;;;;2.70;1.00;;;;;;;;;;5064104;28;20056;-67
2022/07/01 12:35:33;;;;;;;10.93;1.35;;;;;;;;;;5057330;28;20044;-67
2022/07/01 12:37:51;;;;;;;1.50;0.90;;;;;;;;;;5062637;28;20094;-67
2022/07/01 12:40:22;;;;;;;2.30;1.13;;;;;;;;;;5063996;28;20040;-67
2022/07/01 12:42:47;;;;;;;3.17;1.27;;;;;;;;;;5067321;28;20056;-67
2022/07/01 12:45:15;;;;;;;1.90;1.35;;;;;;;;;;5070612;28;20055;-67
2022/07/01 12:47:42;;;;;;;2.53;1.10;;;;;;;;;;5066885;28;20089;-67
2022/07/01 12:50:21;;;;;;;2.65;1.25;;;;;;;;;;5072339;28;20565;-67
2022/07/01 12:52:58;;;;;;;2.13;1.00;;;;;;;;;;5064249;28;20067;-67
2022/07/01 12:55:24;;;;;;;3.65;1.13;;;;;;;;;;5055361;28;20090;-67
2022/07/01 12:57:52;;;;;;;2.25;1.10;;;;;;;;;;5067029;28;20044;-67
2022/07/01 13:00:19;;;;;;;4.20;1.50;;;;;;;;;;5065535;28;20182;-66
2022/07/01 13:02:45;;;;;;;3.88;1.48;;;;;;;;;;5054373;28;20512;-67
2022/07/01 13:05:11;;;;;;;4.43;1.10;;;;;;;;;;5059564;28;20032;-68
2022/07/01 13:07:37;;;;;;;3.78;1.10;;;;;;;;;;5055741;28;20892;-68
2022/07/01 13:10:03;;;;;;;2.22;1.10;;;;;;;;;;5062365;28;20037;-68
2022/07/01 13:12:30;;;;;;;4.60;1.00;;;;;;;;;;5068756;28;20039;-68
2022/07/01 13:14:57;;;;;;;2.25;1.17;;;;;;;;;;5061465;28;20490;-68
2022/07/01 13:17:23;;;;;;;3.50;1.33;;;;;;;;;;5058477;28;20044;-67
2022/07/01 13:19:48;;;;;;;2.55;1.38;;;;;;;;;;5064465;28;20133;-68
2022/07/01 13:22:14;;;;;;;2.17;1.10;;;;;;;;;;5058002;28;20169;-67
2022/07/01 13:24:39;;;;;;;2.67;1.20;;;;;;;;;;5060527;28;20525;-67
2022/07/01 13:27:05;;;;;;;6.47;1.38;;;;;;;;;;5063255;28;20024;-67
2022/07/01 13:29:30;;;;;;;7.25;1.38;;;;;;;;;;5060732;28;20032;-68
2022/07/01 13:31:56;;;;;;;3.10;1.20;;;;;;;;;;5062346;28;20037;-68
2022/07/01 13:34:21;;;;;;;3.28;1.30;;;;;;;;;;5063712;28;20553;-67
2022/07/01 13:36:46;;;;;;;2.35;1.10;;;;;;;;;;5059570;28;20144;-67
2022/07/01 13:39:12;;;;;;;2.40;1.10;;;;;;;;;;5061923;28;20028;-68
2022/07/01 13:41:37;;;;;;;3.00;1.08;;;;;;;;;;5065581;28;20019;-66
2022/07/01 13:44:02;;;;;;;3.42;1.30;;;;;;;;;;5064179;28;20425;-67
2022/07/01 13:46:28;;;;;;;3.38;1.10;;;;;;;;;;5071358;28;20032;-65
2022/07/01 13:48:53;;;;;;;3.78;1.20;;;;;;;;;;5066804;28;20031;-67
2022/07/01 13:51:19;;;;;;;1.20;1.10;;;;;;;;;;5062116;28;20112;-66
2022/07/01 13:53:44;;;;;;;1.83;1.00;;;;;;;;;;5063120;28;20017;-66
2022/07/01 13:56:09;;;;;;;3.45;1.50;;;;;;;;;;5068869;28;20078;-66
2022/07/01 13:58:35;;;;;;;4.07;1.60;;;;;;;;;;5065968;28;20093;-66
2022/07/01 14:01:00;;;;;;;3.85;1.52;;;;;;;;;;5063171;28;20040;-66
2022/07/01 14:03:25;;;;;;;4.20;1.48;;;;;;;;;;5066973;28;20060;-66
2022/07/01 14:05:51;;;;;;;2.92;1.50;;;;;;;;;;5058290;28;20082;-67
2022/07/01 14:08:17;;;;;;;3.17;1.48;;;;;;;;;;5059559;28;20045;-67
2022/07/01 14:10:43;;;;;;;4.20;1.63;;;;;;;;;;5060896;28;20041;-66
2022/07/01 14:13:10;;;;;;;7.68;1.80;;;;;;;;;;5061664;28;20036;-66
2022/07/01 14:15:35;;;;;;;2.83;1.45;;;;;;;;;;5060420;28;20510;-66
2022/07/01 14:18:01;;;;;;;3.03;1.23;;;;;;;;;;5056965;28;20046;-67
2022/07/01 14:20:26;;;;;;;3.53;1.48;;;;;;;;;;5061487;28;20028;-67
2022/07/01 14:22:53;;;;;;;2.65;1.42;;;;;;;;;;5062326;28;20429;-66
2022/07/01 14:25:20;;;;;;;4.65;1.33;;;;;;;;;;5065850;28;20071;-66
2022/07/01 14:27:46;;;;;;;4.28;1.50;;;;;;;;;;5063302;28;20032;-68
2022/07/01 14:30:12;;;;;;;3.28;1.08;;;;;;;;;;5057517;28;21273;-67
2022/07/01 14:32:38;;;;;;;4.32;1.30;;;;;;;;;;5060825;28;20016;-67
2022/07/01 14:35:05;;;;;;;1.90;1.05;;;;;;;;;;5058986;28;20032;-67
2022/07/01 14:37:30;;;;;;;1.58;1.10;;;;;;;;;;5059481;28;20557;-66
2022/07/01 14:39:56;;;;;;;2.13;1.15;;;;;;;;;;5055985;28;20062;-66
2022/07/01 14:42:24;;;;;;;3.22;1.40;;;;;;;;;;5063383;28;20043;-66
2022/07/01 14:44:50;;;;;;;1.95;1.05;;;;;;;;;;5055173;28;20036;-66
2022/07/01 14:47:16;;;;;;;2.33;1.23;;;;;;;;;;5056800;28;20047;-66
2022/07/01 14:49:41;;;;;;;2.47;1.13;;;;;;;;;;5062283;28;20083;-66
2022/07/01 14:52:07;;;;;;;1.75;1.10;;;;;;;;;;5058709;28;20041;-67
2022/07/01 14:54:32;;;;;;;2.80;1.10;;;;;;;;;;5056511;28;20040;-66